Motion Scan — PCNB — position and weather

sailwx.info

Track history (hours):
 
Tides and Currents Weather Stations Pressure Air Temp Water Temp Dewpoint Dewpoint Depression Visibility Wind Speed Wind Dir Waves Ship Positions

Motion Scan

Last reported at 2016-Jul-12 04:30 UTC. Time now 2016-Jul-25 17:48 UTC.
Position S 36°27' E 175°15'.
Warning: this ship's position is 13 days out of date.

Length 116 m; draft 6.4 m.

Type: Cargo ship. MMSI: 245523000.

Date/timePositionNaut miles runAvg speedWind from/ knotsBaromVisibWave heightAir tempDewpointWater temp
2016-Jul-12 04:30S 36°27' E 175°15'1212.5
2016-Jul-12 03:33S 36°34' E 175°03'1010.3
2016-Jul-12 02:33S 36°41' E 174°53'3 2.5
2016-Jul-12 01:31S 36°44' E 174°52'0 0.1
2016-Jul-12 00:31S 36°43' E 174°52'0 0.0
2016-Jul-11 23:31S 36°43' E 174°52'0 0.0
2016-Jul-11 22:31S 36°43' E 174°52'0 0.1
2016-Jul-11 21:31S 36°43' E 174°52'0 0.0
2016-Jul-11 20:31S 36°43' E 174°52'0 0.0
2016-Jul-11 19:31S 36°43' E 174°52'0 0.0
2016-Jul-11 18:31S 36°43' E 174°52'0 0.0
2016-Jul-11 17:25S 36°43' E 174°52'0 0.1
2016-Jul-11 16:31S 36°43' E 174°52'0 0.0
2016-Jul-11 15:31S 36°43' E 174°52'0 0.0
2016-Jul-11 14:31S 36°43' E 174°52'0 0.0
2016-Jul-11 13:31S 36°43' E 174°52'0 0.0
2016-Jul-11 12:31S 36°43' E 174°52'0 0.0
2016-Jul-11 11:31S 36°43' E 174°52'0 0.0
2016-Jul-11 10:31S 36°43' E 174°52'0 0.0
2016-Jul-11 09:31S 36°43' E 174°52'0 0.0
2016-Jul-11 08:31S 36°43' E 174°52'0 0.0
2016-Jul-11 07:31S 36°43' E 174°52'0 0.0
2016-Jul-11 06:31S 36°43' E 174°52'0 0.0
2016-Jul-11 04:31S 36°43' E 174°52'0 0.0
2016-Jul-11 03:31S 36°43' E 174°52'0 0.0
2016-Jul-11 02:31S 36°43' E 174°52'0 0.0
2016-Jul-11 01:31S 36°43' E 174°52'0 0.0
2016-Jul-11 00:31S 36°43' E 174°52'0 0.0
2016-Jul-10 23:31S 36°43' E 174°52'0 0.0
2016-Jul-10 22:31S 36°43' E 174°52'0 0.0
2016-Jul-10 21:31S 36°43' E 174°52'0 0.1
2016-Jul-10 20:31S 36°44' E 174°52'6 6.2
2016-Jul-10 19:33S 36°49' E 174°50'3 2.9
2016-Jul-10 18:32S 36°50' E 174°47'0 0.0
2016-Jul-10 17:32S 36°50' E 174°47'0 0.0
2016-Jul-10 16:32S 36°50' E 174°47'0 0.0
2016-Jul-10 15:32S 36°50' E 174°47'0 0.0
2016-Jul-10 14:32S 36°50' E 174°47'0 0.0
2016-Jul-10 13:32S 36°50' E 174°47'0 0.0
2016-Jul-10 12:32S 36°50' E 174°47'0 0.0
2016-Jul-10 11:32S 36°50' E 174°47'0 0.0
2016-Jul-10 10:32S 36°50' E 174°47'0 0.0
2016-Jul-10 09:32S 36°50' E 174°47'0 0.0
2016-Jul-10 08:32S 36°50' E 174°47'0 0.0
2016-Jul-10 07:32S 36°50' E 174°47'0 0.0
2016-Jul-10 06:32S 36°50' E 174°47'0 0.0
2016-Jul-10 05:32S 36°50' E 174°47'0 0.0
2016-Jul-10 04:32S 36°50' E 174°47'0 0.0
2016-Jul-10 03:32S 36°50' E 174°47'0 0.0
2016-Jul-10 02:32S 36°50' E 174°47'0 0.0
2016-Jul-10 01:32S 36°50' E 174°47'0 0.0
2016-Jul-10 00:32S 36°50' E 174°47'0 0.0
2016-Jul-09 23:32S 36°50' E 174°47'0 0.0
2016-Jul-09 22:32S 36°50' E 174°47'0 0.0
2016-Jul-09 21:32S 36°50' E 174°47'0 0.0
2016-Jul-09 20:32S 36°50' E 174°47'0 0.0
2016-Jul-09 19:32S 36°50' E 174°47'0 0.0
2016-Jul-09 18:32S 36°50' E 174°47'2 2.6
2016-Jul-09 17:33S 36°50' E 174°50'8 7.6
2016-Jul-09 16:33S 36°42' E 174°52'7 6.6
2016-Jul-09 15:33S 36°37' E 174°57'7 7.4
2016-Jul-09 14:33S 36°31' E 175°03'7 6.9
2016-Jul-09 13:33S 36°25' E 175°05'8 7.5
2016-Jul-09 12:32S 36°17' E 175°08'8 7.8
2016-Jul-09 11:33S 36°10' E 175°11'9 8.5
2016-Jul-09 10:33S 36°02' E 175°14'  
Track history (hours):
 
Tides and Currents Weather Stations Pressure Air Temp Water Temp Dewpoint Dewpoint Depression Visibility Wind Speed Wind Dir Waves Ship Positions

Motion Scan

Last reported at 2016-Jul-12 04:30 UTC. Time now 2016-Jul-25 17:48 UTC.
Position S 36°27' E 175°15'.
Warning: this ship's position is 13 days out of date.

Length 116 m; draft 6.4 m.

Type: Cargo ship. MMSI: 245523000.

Date/timePositionNaut miles runAvg speedWind from/ knotsBaromVisibWave heightAir tempDewpointWater temp
2016-Jul-12 04:30S 36°27' E 175°15'1212.5
2016-Jul-12 03:33S 36°34' E 175°03'1010.3
2016-Jul-12 02:33S 36°41' E 174°53'3 2.5
2016-Jul-12 01:31S 36°44' E 174°52'0 0.1
2016-Jul-12 00:31S 36°43' E 174°52'0 0.0
2016-Jul-11 23:31S 36°43' E 174°52'0 0.0
2016-Jul-11 22:31S 36°43' E 174°52'0 0.1
2016-Jul-11 21:31S 36°43' E 174°52'0 0.0
2016-Jul-11 20:31S 36°43' E 174°52'0 0.0
2016-Jul-11 19:31S 36°43' E 174°52'0 0.0
2016-Jul-11 18:31S 36°43' E 174°52'0 0.0
2016-Jul-11 17:25S 36°43' E 174°52'0 0.1
2016-Jul-11 16:31S 36°43' E 174°52'0 0.0
2016-Jul-11 15:31S 36°43' E 174°52'0 0.0
2016-Jul-11 14:31S 36°43' E 174°52'0 0.0
2016-Jul-11 13:31S 36°43' E 174°52'0 0.0
2016-Jul-11 12:31S 36°43' E 174°52'0 0.0
2016-Jul-11 11:31S 36°43' E 174°52'0 0.0
2016-Jul-11 10:31S 36°43' E 174°52'0 0.0
2016-Jul-11 09:31S 36°43' E 174°52'0 0.0
2016-Jul-11 08:31S 36°43' E 174°52'0 0.0
2016-Jul-11 07:31S 36°43' E 174°52'0 0.0
2016-Jul-11 06:31S 36°43' E 174°52'0 0.0
2016-Jul-11 04:31S 36°43' E 174°52'0 0.0
2016-Jul-11 03:31S 36°43' E 174°52'0 0.0
2016-Jul-11 02:31S 36°43' E 174°52'0 0.0
2016-Jul-11 01:31S 36°43' E 174°52'0 0.0
2016-Jul-11 00:31S 36°43' E 174°52'0 0.0
2016-Jul-10 23:31S 36°43' E 174°52'0 0.0
2016-Jul-10 22:31S 36°43' E 174°52'0 0.0
2016-Jul-10 21:31S 36°43' E 174°52'0 0.1
2016-Jul-10 20:31S 36°44' E 174°52'6 6.2
2016-Jul-10 19:33S 36°49' E 174°50'3 2.9
2016-Jul-10 18:32S 36°50' E 174°47'0 0.0
2016-Jul-10 17:32S 36°50' E 174°47'0 0.0
2016-Jul-10 16:32S 36°50' E 174°47'0 0.0
2016-Jul-10 15:32S 36°50' E 174°47'0 0.0
2016-Jul-10 14:32S 36°50' E 174°47'0 0.0
2016-Jul-10 13:32S 36°50' E 174°47'0 0.0
2016-Jul-10 12:32S 36°50' E 174°47'0 0.0
2016-Jul-10 11:32S 36°50' E 174°47'0 0.0
2016-Jul-10 10:32S 36°50' E 174°47'0 0.0
2016-Jul-10 09:32S 36°50' E 174°47'0 0.0
2016-Jul-10 08:32S 36°50' E 174°47'0 0.0
2016-Jul-10 07:32S 36°50' E 174°47'0 0.0
2016-Jul-10 06:32S 36°50' E 174°47'0 0.0
2016-Jul-10 05:32S 36°50' E 174°47'0 0.0
2016-Jul-10 04:32S 36°50' E 174°47'0 0.0
2016-Jul-10 03:32S 36°50' E 174°47'0 0.0
2016-Jul-10 02:32S 36°50' E 174°47'0 0.0
2016-Jul-10 01:32S 36°50' E 174°47'0 0.0
2016-Jul-10 00:32S 36°50' E 174°47'0 0.0
2016-Jul-09 23:32S 36°50' E 174°47'0 0.0
2016-Jul-09 22:32S 36°50' E 174°47'0 0.0
2016-Jul-09 21:32S 36°50' E 174°47'0 0.0
2016-Jul-09 20:32S 36°50' E 174°47'0 0.0
2016-Jul-09 19:32S 36°50' E 174°47'0 0.0
2016-Jul-09 18:32S 36°50' E 174°47'2 2.6
2016-Jul-09 17:33S 36°50' E 174°50'8 7.6
2016-Jul-09 16:33S 36°42' E 174°52'7 6.6
2016-Jul-09 15:33S 36°37' E 174°57'7 7.4
2016-Jul-09 14:33S 36°31' E 175°03'7 6.9
2016-Jul-09 13:33S 36°25' E 175°05'8 7.5
2016-Jul-09 12:32S 36°17' E 175°08'8 7.8
2016-Jul-09 11:33S 36°10' E 175°11'9 8.5
2016-Jul-09 10:33S 36°02' E 175°14'  

Dump ship's entire track history